createdAt,value
2023-04-27T00:00:19.314Z,2.45
2023-04-27T00:03:45.943Z,2.38
2023-04-27T00:06:49.768Z,2.70
2023-04-27T00:09:53.164Z,3.00
2023-04-27T00:12:56.884Z,2.60
2023-04-27T00:16:03.887Z,2.70
2023-04-27T00:19:10.113Z,2.10
2023-04-27T00:22:13.946Z,2.25
2023-04-27T00:25:17.834Z,2.90
2023-04-27T00:28:21.613Z,2.80
2023-04-27T00:31:25.671Z,3.00
2023-04-27T00:34:30.518Z,2.65
2023-04-27T00:37:34.608Z,2.70
2023-04-27T00:40:40.079Z,2.28
2023-04-27T00:43:47.880Z,2.70
2023-04-27T00:46:51.538Z,2.33
2023-04-27T00:49:57.840Z,2.85
2023-04-27T00:53:03.565Z,2.75
2023-04-27T00:56:09.004Z,2.53
2023-04-27T00:59:12.769Z,2.58
2023-04-27T01:02:17.409Z,2.67
2023-04-27T01:05:25.555Z,3.08
2023-04-27T01:08:29.880Z,2.47
2023-04-27T01:11:34.397Z,2.60
2023-04-27T01:14:38.590Z,2.70
2023-04-27T01:17:43.737Z,2.70
2023-04-27T01:20:49.147Z,3.03
2023-04-27T01:23:54.053Z,2.80
2023-04-27T01:26:57.919Z,2.53
2023-04-27T01:30:01.487Z,3.13
2023-04-27T01:33:05.705Z,3.22
2023-04-27T01:36:10.945Z,2.47
2023-04-27T01:39:16.572Z,2.90
2023-04-27T01:42:19.993Z,2.80
2023-04-27T01:45:24.118Z,3.15
2023-04-27T01:48:27.947Z,2.90
2023-04-27T01:51:32.870Z,3.00
2023-04-27T01:54:37.745Z,3.10
2023-04-27T01:57:43.346Z,2.92
2023-04-27T02:00:46.863Z,3.30
2023-04-27T02:03:50.852Z,2.92
2023-04-27T02:06:54.559Z,3.17
2023-04-27T02:09:59.720Z,3.50
2023-04-27T02:13:03.566Z,3.38
2023-04-27T02:16:08.468Z,3.35
2023-04-27T02:19:12.269Z,2.70
2023-04-27T02:22:16.441Z,2.72
2023-04-27T02:25:21.593Z,3.08
2023-04-27T02:28:25.469Z,2.80
2023-04-27T02:31:30.408Z,3.47
2023-04-27T02:34:34.267Z,3.42
2023-04-27T02:37:37.912Z,3.60
2023-04-27T02:40:43.040Z,3.87
2023-04-27T02:43:46.859Z,5.50
2023-04-27T02:46:51.541Z,4.43
2023-04-27T02:49:55.072Z,6.10
2023-04-27T02:52:59.859Z,6.88
2023-04-27T02:56:05.178Z,6.32
2023-04-27T02:59:09.106Z,6.47
2023-04-27T03:02:12.794Z,7.53
2023-04-27T03:05:16.540Z,7.57
2023-04-27T03:08:19.976Z,11.65
2023-04-27T03:11:25.162Z,10.10
2023-04-27T03:14:28.614Z,6.43
2023-04-27T03:17:32.592Z,9.02
2023-04-27T03:20:36.133Z,7.07
2023-04-27T03:23:41.312Z,7.53
2023-04-27T03:26:46.200Z,7.15
2023-04-27T03:29:53.564Z,8.57
2023-04-27T03:32:57.826Z,6.97
2023-04-27T03:36:02.063Z,6.40
2023-04-27T03:39:05.787Z,6.72
2023-04-27T03:42:12.335Z,5.60
2023-04-27T03:45:16.787Z,4.53
2023-04-27T03:48:21.770Z,6.22
2023-04-27T03:51:27.015Z,5.50
2023-04-27T03:54:32.632Z,5.38
2023-04-27T03:57:37.397Z,4.30
2023-04-27T04:00:41.744Z,4.85
2023-04-27T04:03:45.605Z,6.63
2023-04-27T04:06:49.738Z,6.95
2023-04-27T04:09:53.508Z,5.85
2023-04-27T04:12:58.765Z,5.03
2023-04-27T04:16:05.298Z,5.32
2023-04-27T04:19:10.034Z,6.22
2023-04-27T04:22:13.944Z,5.63
2023-04-27T04:25:18.148Z,5.70
2023-04-27T04:28:23.174Z,5.70
2023-04-27T04:31:27.698Z,5.90
2023-04-27T04:34:31.324Z,5.32
2023-04-27T04:37:36.530Z,5.72
2023-04-27T04:40:42.356Z,5.68
2023-04-27T04:43:49.596Z,5.40
2023-04-27T04:46:55.534Z,5.00
2023-04-27T04:50:04.019Z,5.90
2023-04-27T04:53:07.924Z,4.97
2023-04-27T04:56:14.041Z,5.90
2023-04-27T04:59:18.947Z,4.68
2023-04-27T05:02:22.856Z,5.93
2023-04-27T05:05:26.435Z,5.70
2023-04-27T05:08:30.409Z,5.90
2023-04-27T05:11:33.859Z,5.50
2023-04-27T05:14:39.194Z,5.53
2023-04-27T05:17:42.660Z,5.97
2023-04-27T05:20:46.645Z,4.63
2023-04-27T05:23:50.459Z,5.07
2023-04-27T05:26:54.511Z,4.45
2023-04-27T05:29:59.324Z,4.38
2023-04-27T05:33:04.156Z,4.45
2023-04-27T05:36:09.312Z,4.40
2023-04-27T05:39:13.337Z,3.90
2023-04-27T05:42:16.857Z,4.30
2023-04-27T05:45:22.701Z,4.13
2023-04-27T05:48:26.188Z,3.88
2023-04-27T05:51:30.091Z,4.28
2023-04-27T05:54:33.468Z,3.17
2023-04-27T05:57:37.279Z,3.40
2023-04-27T06:00:42.200Z,4.07
2023-04-27T06:03:46.369Z,4.00
2023-04-27T06:06:49.940Z,4.13
2023-04-27T06:09:53.722Z,4.22
2023-04-27T06:12:57.102Z,4.07
2023-04-27T06:16:03.142Z,3.53
2023-04-27T06:19:06.524Z,3.95
2023-04-27T06:22:11.651Z,3.47
2023-04-27T06:25:15.242Z,2.87
2023-04-27T06:28:19.086Z,3.03
2023-04-27T06:31:23.978Z,2.72
2023-04-27T06:34:27.960Z,2.55
2023-04-27T06:37:31.351Z,3.25
2023-04-27T06:40:37.382Z,2.80
2023-04-27T06:43:40.731Z,2.78
2023-04-27T06:46:45.940Z,2.40
2023-04-27T06:49:49.907Z,2.72
2023-04-27T06:52:53.755Z,2.33
2023-04-27T06:55:57.114Z,3.10
2023-04-27T06:59:00.923Z,2.17
2023-04-27T07:02:05.905Z,2.72
2023-04-27T07:05:10.083Z,2.53
2023-04-27T07:08:14.160Z,2.35
2023-04-27T07:11:17.816Z,2.95
2023-04-27T07:14:21.538Z,2.70
2023-04-27T07:17:26.697Z,2.70
2023-04-27T07:20:30.295Z,2.30
2023-04-27T07:23:34.119Z,2.10
2023-04-27T07:26:37.731Z,2.40
2023-04-27T07:29:42.487Z,2.42
2023-04-27T07:32:48.241Z,2.55
2023-04-27T07:35:54.028Z,2.50
2023-04-27T07:38:58.452Z,2.53
2023-04-27T07:42:04.327Z,2.35
2023-04-27T07:45:09.907Z,2.10
2023-04-27T07:48:15.057Z,2.30
2023-04-27T07:51:18.531Z,2.20
2023-04-27T07:54:22.358Z,2.28
2023-04-27T07:57:25.861Z,1.97
2023-04-27T08:00:29.733Z,1.83
2023-04-27T08:03:34.726Z,2.40
2023-04-27T08:11:11.531Z,2.93
2023-04-27T08:14:15.594Z,2.22
2023-04-27T08:17:19.522Z,2.30
2023-04-27T08:20:24.684Z,2.53
2023-04-27T08:23:29.290Z,2.50
2023-04-27T08:26:33.085Z,2.38
2023-04-27T08:29:37.022Z,2.33
2023-04-27T08:32:40.982Z,2.30
2023-04-27T08:35:46.063Z,2.00
2023-04-27T08:38:49.723Z,2.10
2023-04-27T08:41:53.472Z,2.00
2023-04-27T08:44:57.765Z,2.20
2023-04-27T08:48:01.803Z,2.25
2023-04-27T08:51:17.146Z,2.20
2023-04-27T08:54:22.004Z,2.40
2023-04-27T08:57:25.998Z,2.33
2023-04-27T09:00:41.759Z,2.15
2023-04-27T09:03:47.204Z,5.68
2023-04-27T09:06:52.275Z,2.75
2023-04-27T09:10:05.051Z,2.00
2023-04-27T09:13:08.597Z,2.30
2023-04-27T09:16:15.150Z,2.05
2023-04-27T09:19:26.215Z,2.40
2023-04-27T09:22:31.733Z,2.43
2023-04-27T09:25:35.895Z,2.00
2023-04-27T09:28:41.379Z,2.15
2023-04-27T09:31:45.052Z,1.90
2023-04-27T09:34:48.763Z,2.13
2023-04-27T09:37:55.618Z,1.73
2023-04-27T09:41:01.199Z,1.92
2023-04-27T09:44:05.772Z,1.80
2023-04-27T09:47:11.736Z,2.00
2023-04-27T09:50:16.371Z,1.60
2023-04-27T09:53:27.426Z,1.87
2023-04-27T09:56:48.095Z,1.90
2023-04-27T10:00:11.988Z,2.00
2023-04-27T10:03:24.968Z,1.85
2023-04-27T10:06:59.145Z,1.75
2023-04-27T10:10:05.246Z,1.52
2023-04-27T10:13:09.039Z,2.00
2023-04-27T10:16:19.443Z,1.70
2023-04-27T10:19:24.842Z,1.92
2023-04-27T10:22:40.627Z,2.28
2023-04-27T10:25:48.239Z,1.90
2023-04-27T10:29:07.196Z,2.28
2023-04-27T10:32:14.215Z,1.83
2023-04-27T10:35:17.803Z,1.80
2023-04-27T10:38:28.054Z,1.40
2023-04-27T10:41:37.009Z,1.60
2023-04-27T10:44:41.178Z,1.35
2023-04-27T10:47:47.111Z,1.80
2023-04-27T10:50:53.014Z,1.88
2023-04-27T10:53:56.748Z,2.00
2023-04-27T10:57:07.156Z,2.13
2023-04-27T11:00:16.259Z,1.60
2023-04-27T11:03:24.087Z,1.80
2023-04-27T11:06:28.885Z,1.73
2023-04-27T11:09:32.921Z,1.25
2023-04-27T11:12:37.911Z,1.20
2023-04-27T11:15:50.575Z,0.93
2023-04-27T11:18:54.134Z,1.07
2023-04-27T11:22:05.261Z,1.20
2023-04-27T11:25:09.775Z,1.02
2023-04-27T11:28:20.497Z,1.20
2023-04-27T11:31:24.253Z,1.35
2023-04-27T11:34:28.014Z,1.70
2023-04-27T11:37:31.765Z,1.60
2023-04-27T11:40:37.421Z,1.73
2023-04-27T11:43:49.318Z,1.30
2023-04-27T11:46:54.445Z,1.50
2023-04-27T11:49:59.620Z,1.20
2023-04-27T11:53:03.710Z,1.17
2023-04-27T11:56:11.339Z,1.40
2023-04-27T11:59:25.365Z,1.30
2023-04-27T12:02:31.273Z,1.08
2023-04-27T12:05:36.118Z,1.63
2023-04-27T12:08:39.652Z,1.38
2023-04-27T12:11:43.356Z,1.60
2023-04-27T12:14:48.284Z,1.50
2023-04-27T12:17:52.042Z,1.65
2023-04-27T12:20:55.560Z,1.60
2023-04-27T12:23:59.301Z,1.65
2023-04-27T12:27:03.242Z,1.40
2023-04-27T12:30:09.801Z,1.77
2023-04-27T12:33:13.712Z,1.38
2023-04-27T12:36:17.674Z,1.30
2023-04-27T12:39:25.416Z,1.88
2023-04-27T12:42:29.275Z,1.70
2023-04-27T12:45:34.146Z,1.83
2023-04-27T12:48:38.073Z,1.50
2023-04-27T12:51:41.916Z,1.80
2023-04-27T12:54:46.636Z,1.30
2023-04-27T12:57:50.030Z,1.67
2023-04-27T13:00:58.753Z,1.40
2023-04-27T13:04:05.941Z,1.35
2023-04-27T13:07:09.915Z,1.63
2023-04-27T13:10:13.459Z,1.50
2023-04-27T13:13:17.323Z,1.90
2023-04-27T13:16:25.354Z,1.50
2023-04-27T13:19:29.607Z,1.70
2023-04-27T13:22:33.523Z,1.30
2023-04-27T13:25:37.208Z,1.48
2023-04-27T13:28:41.161Z,1.27
2023-04-27T13:31:46.013Z,1.90
2023-04-27T13:34:49.765Z,1.60
2023-04-27T13:37:53.942Z,1.40
2023-04-27T13:40:57.625Z,1.35
2023-04-27T13:44:01.318Z,1.52
2023-04-27T13:47:07.943Z,1.70
2023-04-27T13:50:12.961Z,1.90
2023-04-27T13:53:17.054Z,1.60
2023-04-27T13:56:20.918Z,1.15
2023-04-27T13:59:25.004Z,1.40
2023-04-27T14:02:30.961Z,1.30
2023-04-27T14:05:34.804Z,1.27
2023-04-27T14:08:38.316Z,1.40
2023-04-27T14:11:55.105Z,1.27
2023-04-27T14:15:00.171Z,1.20
2023-04-27T14:18:06.949Z,1.05
2023-04-27T14:21:10.539Z,1.05
2023-04-27T14:24:14.861Z,1.20
2023-04-27T14:27:18.693Z,1.45
2023-04-27T14:30:22.993Z,1.58
2023-04-27T14:33:28.044Z,1.60
2023-04-27T14:36:32.376Z,1.45
2023-04-27T14:39:35.799Z,1.58
2023-04-27T14:42:39.561Z,1.60
2023-04-27T14:45:51.526Z,1.50
2023-04-27T14:48:59.197Z,1.50
2023-04-27T14:52:04.794Z,1.50
2023-04-27T14:55:09.921Z,1.40
2023-04-27T14:58:13.634Z,1.30
2023-04-27T15:01:17.572Z,1.40
2023-04-27T15:04:22.853Z,2.03
2023-04-27T15:07:26.618Z,1.60
2023-04-27T15:10:30.406Z,1.55
2023-04-27T15:13:34.090Z,1.63
2023-04-27T15:16:37.778Z,1.75
2023-04-27T15:19:43.033Z,1.60
2023-04-27T15:22:46.960Z,1.38
2023-04-27T15:25:55.359Z,1.60
2023-04-27T15:29:00.815Z,1.60
2023-04-27T15:32:05.193Z,1.83
2023-04-27T15:35:10.784Z,1.93
2023-04-27T15:38:16.322Z,1.65
2023-04-27T15:41:20.144Z,1.85
2023-04-27T15:44:23.992Z,1.90
2023-04-27T15:47:28.002Z,1.60
2023-04-27T15:50:34.159Z,2.10
2023-04-27T15:53:37.618Z,1.75
2023-04-27T15:56:41.336Z,1.67
2023-04-27T15:59:44.944Z,2.00
2023-04-27T16:02:49.098Z,1.60
2023-04-27T16:05:54.117Z,1.73
2023-04-27T16:08:57.936Z,1.90
2023-04-27T16:12:01.507Z,1.80
2023-04-27T16:15:08.473Z,1.80
2023-04-27T16:18:13.760Z,1.77
2023-04-27T16:21:19.145Z,2.10
2023-04-27T16:24:22.660Z,2.03
2023-04-27T16:27:26.803Z,1.60
2023-04-27T16:30:30.652Z,1.83
2023-04-27T16:33:34.422Z,1.75
2023-04-27T16:36:39.248Z,1.80
2023-04-27T16:39:43.010Z,2.10
2023-04-27T16:42:46.545Z,2.08
2023-04-27T16:45:50.393Z,2.35
2023-04-27T16:48:53.878Z,2.63
2023-04-27T16:51:59.164Z,2.85
2023-04-27T16:55:02.547Z,2.70
2023-04-27T16:58:07.186Z,2.20
2023-04-27T17:01:10.878Z,2.30
2023-04-27T17:04:14.761Z,2.13
2023-04-27T17:07:19.925Z,2.40
2023-04-27T17:10:23.945Z,2.22
2023-04-27T17:13:27.409Z,2.05
2023-04-27T17:16:31.181Z,2.40
2023-04-27T17:19:34.702Z,2.17
2023-04-27T17:22:39.793Z,2.30
2023-04-27T17:25:43.365Z,3.13
2023-04-27T17:28:47.452Z,3.20
2023-04-27T17:31:51.339Z,2.83
2023-04-27T17:34:54.847Z,2.50
2023-04-27T17:38:00.132Z,3.00
2023-04-27T17:41:03.521Z,2.88
2023-04-27T17:44:07.483Z,3.78
2023-04-27T17:47:11.648Z,3.90
2023-04-27T17:50:15.801Z,5.35
2023-04-27T17:53:20.862Z,4.80
2023-04-27T17:56:24.671Z,4.10
2023-04-27T17:59:28.895Z,3.30
2023-04-27T18:02:32.926Z,2.90
2023-04-27T18:05:36.835Z,3.53
2023-04-27T18:08:42.067Z,3.80
2023-04-27T18:11:45.891Z,4.20
2023-04-27T18:14:50.797Z,4.18
2023-04-27T18:17:55.036Z,4.43
2023-04-27T18:20:58.858Z,4.72
2023-04-27T18:24:03.662Z,5.07
2023-04-27T18:27:07.492Z,5.68
2023-04-27T18:30:11.698Z,5.67
2023-04-27T18:33:17.786Z,7.47
2023-04-27T18:36:21.281Z,9.50
2023-04-27T18:39:26.646Z,12.40
2023-04-27T18:42:30.488Z,11.48
2023-04-27T18:45:34.454Z,11.80
2023-04-27T18:48:37.871Z,9.60
2023-04-27T18:51:43.127Z,10.98
2023-04-27T18:54:48.076Z,11.15
2023-04-27T18:57:51.872Z,10.90
2023-04-27T19:00:55.341Z,10.20
2023-04-27T19:04:00.201Z,9.88
2023-04-27T19:07:04.309Z,7.15
2023-04-27T19:10:11.467Z,7.00
2023-04-27T19:13:15.515Z,6.55
2023-04-27T19:16:19.723Z,7.30
2023-04-27T19:19:23.187Z,7.40
2023-04-27T19:22:27.960Z,8.35
2023-04-27T19:25:33.088Z,9.00
2023-04-27T19:28:36.876Z,10.02
2023-04-27T19:31:40.478Z,10.10
2023-04-27T19:34:44.341Z,10.82
2023-04-27T19:37:48.019Z,9.95
2023-04-27T19:40:53.424Z,9.90
2023-04-27T19:43:56.933Z,9.20
2023-04-27T19:47:00.557Z,11.48
2023-04-27T19:50:04.869Z,12.00
2023-04-27T19:53:08.708Z,12.27
2023-04-27T19:56:13.721Z,10.23
2023-04-27T19:59:18.543Z,9.45
2023-04-27T20:02:22.848Z,8.90
2023-04-27T20:05:27.445Z,10.15
2023-04-27T20:08:31.384Z,9.23
2023-04-27T20:11:36.742Z,8.50
2023-04-27T20:14:42.555Z,10.55
2023-04-27T20:17:46.387Z,10.88
2023-04-27T20:20:51.431Z,9.57
2023-04-27T20:23:55.047Z,9.60
2023-04-27T20:27:00.151Z,10.20
2023-04-27T20:30:05.083Z,9.93
2023-04-27T20:33:08.745Z,9.90
2023-04-27T20:36:17.787Z,10.50
2023-04-27T20:39:24.110Z,10.57
2023-04-27T20:42:29.670Z,10.77
2023-04-27T20:45:34.203Z,10.88
2023-04-27T20:48:37.927Z,10.45
2023-04-27T20:51:41.532Z,10.90
2023-04-27T20:54:45.348Z,10.45
2023-04-27T20:57:50.264Z,10.82
2023-04-27T21:00:53.981Z,17.55
2023-04-27T21:03:57.722Z,29.53
2023-04-27T21:07:01.521Z,28.27
2023-04-27T21:10:06.998Z,22.63
2023-04-27T21:13:12.312Z,23.73
2023-04-27T21:16:15.746Z,28.58
2023-04-27T21:19:19.443Z,27.90
2023-04-27T21:22:23.221Z,23.10
2023-04-27T21:25:27.338Z,11.68
2023-04-27T21:28:32.619Z,12.88
2023-04-27T21:31:36.931Z,22.65
2023-04-27T21:34:40.637Z,25.20
2023-04-27T21:37:44.488Z,22.73
2023-04-27T21:40:48.139Z,24.30
2023-04-27T21:43:53.404Z,23.17
2023-04-27T21:46:57.158Z,22.10
2023-04-27T21:50:01.164Z,18.02
2023-04-27T21:53:04.673Z,19.23
2023-04-27T21:56:09.817Z,24.27
2023-04-27T21:59:14.765Z,23.35
2023-04-27T22:02:19.205Z,24.85
2023-04-27T22:05:22.808Z,28.33
2023-04-27T22:08:26.733Z,30.33
2023-04-27T22:11:30.201Z,28.10
2023-04-27T22:14:35.668Z,27.67
2023-04-27T22:17:40.608Z,23.35
2023-04-27T22:20:44.868Z,21.40
2023-04-27T22:23:49.441Z,24.33
2023-04-27T22:26:53.053Z,26.40
2023-04-27T22:29:57.954Z,24.73
2023-04-27T22:33:03.445Z,22.00
2023-04-27T22:36:07.952Z,24.87
2023-04-27T22:39:11.812Z,25.38
2023-04-27T22:42:15.294Z,26.98
2023-04-27T22:45:20.305Z,27.90
2023-04-27T22:48:23.757Z,23.42
2023-04-27T22:51:27.737Z,29.40
2023-04-27T22:54:31.358Z,27.52
2023-04-27T22:57:35.173Z,23.88
2023-04-27T23:00:40.667Z,24.92
2023-04-27T23:03:44.725Z,22.98
2023-04-27T23:06:48.262Z,22.43
2023-04-27T23:09:52.920Z,24.20
2023-04-27T23:12:57.081Z,24.67
2023-04-27T23:16:02.253Z,26.43
2023-04-27T23:19:05.805Z,25.77
2023-04-27T23:22:09.725Z,25.00
2023-04-27T23:25:13.359Z,25.30
2023-04-27T23:28:17.207Z,26.02
2023-04-27T23:31:24.121Z,27.75
2023-04-27T23:34:28.073Z,26.08
2023-04-27T23:37:31.689Z,25.20
2023-04-27T23:40:36.334Z,23.25
2023-04-27T23:43:39.715Z,22.90
2023-04-27T23:46:44.803Z,23.05
2023-04-27T23:49:48.280Z,24.08
2023-04-27T23:52:51.955Z,23.02
2023-04-27T23:55:55.732Z,23.80
2023-04-27T23:58:59.488Z,23.98
